Time;durP1;ratioP1;P1;durP2;ratioP2;P2;SDS_P1;SDS_P2;PMS_P1;PMS_P2;Temp;Humidity;BMP_temperature;BMP_pressure;BME280_temperature;BME280_humidity;BME280_pressure;Samples;Min_cycle;Max_cycle;Signal;HPM_P1;HPM_P2
2023/05/01 00:00:41;;;;;;;;;;;17.20;99.90;;;;;;5053306;28;19979;-73
2023/05/01 00:03:07;;;;;;;;;;;17.10;99.90;;;;;;5052230;28;19913;-72
2023/05/01 00:05:34;;;;;;;;;;;17.20;99.90;;;;;;5051944;28;19916;-72
2023/05/01 00:08:00;;;;;;;;;;;17.10;99.90;;;;;;5051948;28;19987;-72
2023/05/01 00:10:26;;;;;;;;;;;17.00;99.90;;;;;;5052132;28;20301;-68
2023/05/01 00:12:51;;;;;;;;;;;17.00;99.90;;;;;;5050320;28;19956;-72
2023/05/01 00:15:17;;;;;;;;;;;17.00;99.90;;;;;;5052164;28;19990;-72
2023/05/01 00:17:43;;;;;;;;;;;17.10;99.90;;;;;;5052316;28;20320;-73
2023/05/01 00:20:09;;;;;;;;;;;17.00;99.90;;;;;;5051942;28;19916;-72
2023/05/01 00:22:35;;;;;;;;;;;17.10;99.90;;;;;;5051505;28;20011;-70
2023/05/01 00:25:01;;;;;;;;;;;17.10;99.90;;;;;;5051713;28;20341;-71
2023/05/01 00:27:26;;;;;;;;;;;17.10;99.90;;;;;;5051414;28;20009;-72
2023/05/01 00:29:52;;;;;;;;;;;17.20;99.90;;;;;;5051705;28;20264;-69
2023/05/01 00:32:18;;;;;;;;;;;17.20;99.90;;;;;;5051312;28;20340;-72
2023/05/01 00:34:46;;;;;;;;;;;17.20;99.90;;;;;;5051767;28;19904;-72
2023/05/01 00:37:12;;;;;;;;;;;17.20;99.90;;;;;;5049837;28;20423;-72
2023/05/01 00:39:38;;;;;;;;;;;17.20;99.90;;;;;;5051294;28;19911;-69
2023/05/01 00:42:04;;;;;;;;;;;17.20;99.90;;;;;;5051387;28;19912;-72
2023/05/01 00:44:30;;;;;;;;;;;17.20;99.90;;;;;;5049693;28;20371;-73
2023/05/01 00:46:59;;;;;;;;;;;17.30;99.90;;;;;;5051516;28;20333;-71
2023/05/01 00:49:25;;;;;;;;;;;17.20;99.90;;;;;;5051352;28;19974;-72
2023/05/01 00:51:54;;;;;;;;;;;17.20;99.90;;;;;;5050962;28;20269;-72
2023/05/01 00:54:21;;;;;;;;;;;17.20;99.90;;;;;;5050999;28;20316;-72
2023/05/01 00:56:47;;;;;;;;;;;17.30;99.90;;;;;;5051043;28;20011;-72
2023/05/01 00:59:13;;;;;;;;;;;17.30;99.90;;;;;;5049488;28;19966;-72
2023/05/01 01:01:42;;;;;;;;;;;17.20;99.90;;;;;;5051083;28;19913;-71
2023/05/01 01:04:07;;;;;;;;;;;17.20;99.90;;;;;;5050656;28;19915;-72
2023/05/01 01:06:34;;;;;;;;;;;17.20;99.90;;;;;;5051086;28;19905;-72
2023/05/01 01:09:00;;;;;;;;;;;17.20;99.90;;;;;;5050895;28;19996;-72
2023/05/01 01:11:46;;;;;;;;;;;17.10;99.90;;;;;;5051032;28;20384;-71
2023/05/01 01:14:20;;;;;;;;;;;17.10;99.90;;;;;;5039686;28;19955;-71
2023/05/01 01:17:18;;;;;;;;;;;17.10;99.90;;;;;;5050918;28;19905;-72
2023/05/01 01:20:02;;;;;;;;;;;17.00;99.90;;;;;;5028792;28;19905;-72
2023/05/01 01:22:28;;;;;;;;;;;17.00;99.90;;;;;;5028602;28;19936;-72
2023/05/01 01:24:59;;;;;;;;;;;17.00;99.90;;;;;;5012343;28;20373;-71
2023/05/01 01:27:45;;;;;;;;;;;17.00;99.90;;;;;;5028608;28;19912;-71
2023/05/01 01:30:29;;;;;;;;;;;17.00;99.90;;;;;;5029137;28;19908;-72
2023/05/01 01:33:00;;;;;;;;;;;17.00;99.90;;;;;;5028515;28;20022;-72
2023/05/01 01:35:27;;;;;;;;;;;16.90;99.90;;;;;;5028939;28;20082;-72
2023/05/01 01:38:02;;;;;;;;;;;16.90;99.90;;;;;;5012207;28;19905;-72
2023/05/01 01:40:33;;;;;;;;;;;17.00;99.90;;;;;;5028790;28;20422;-72
2023/05/01 01:43:03;;;;;;;;;;;16.90;99.90;;;;;;5028133;28;19924;-72
2023/05/01 01:45:32;;;;;;;;;;;16.90;99.90;;;;;;5028514;28;20310;-72
2023/05/01 01:47:59;;;;;;;;;;;16.90;99.90;;;;;;5028822;28;19912;-73
2023/05/01 01:50:26;;;;;;;;;;;16.90;99.90;;;;;;5028298;28;19912;-72
2023/05/01 01:52:53;;;;;;;;;;;16.90;99.90;;;;;;5028301;28;19905;-72
2023/05/01 01:55:21;;;;;;;;;;;16.90;99.90;;;;;;5039316;28;19916;-72
2023/05/01 01:57:48;;;;;;;;;;;17.00;99.90;;;;;;5050325;28;20288;-72
2023/05/01 02:00:15;;;;;;;;;;;17.00;99.90;;;;;;5050880;28;19913;-71
2023/05/01 02:02:41;;;;;;;;;;;17.00;99.90;;;;;;5050033;28;19964;-72
2023/05/01 02:05:08;;;;;;;;;;;17.00;99.90;;;;;;5050471;28;19951;-72
2023/05/01 02:07:36;;;;;;;;;;;17.00;99.90;;;;;;5050348;28;19913;-72
2023/05/01 02:10:03;;;;;;;;;;;16.90;99.90;;;;;;5050415;28;19909;-72
2023/05/01 02:12:29;;;;;;;;;;;17.00;99.90;;;;;;5050157;28;19999;-72
2023/05/01 02:14:56;;;;;;;;;;;17.00;99.90;;;;;;5050270;28;19975;-72
2023/05/01 02:17:23;;;;;;;;;;;17.10;99.90;;;;;;5053018;28;19909;-72
2023/05/01 02:19:51;;;;;;;;;;;17.00;99.90;;;;;;5054025;28;20006;-72
2023/05/01 02:22:18;;;;;;;;;;;17.00;99.90;;;;;;5052431;28;19974;-71
2023/05/01 02:24:45;;;;;;;;;;;17.00;99.90;;;;;;5054237;28;19945;-72
2023/05/01 02:27:14;;;;;;;;;;;17.00;99.90;;;;;;5053876;28;20257;-73
2023/05/01 02:29:40;;;;;;;;;;;16.80;99.90;;;;;;5054099;28;20365;-71
2023/05/01 02:32:06;;;;;;;;;;;16.90;99.90;;;;;;5050404;28;19928;-72
2023/05/01 02:34:35;;;;;;;;;;;16.90;99.90;;;;;;5052997;28;20344;-68
2023/05/01 02:37:02;;;;;;;;;;;17.00;99.90;;;;;;5053873;28;19923;-68
2023/05/01 02:39:28;;;;;;;;;;;17.00;99.90;;;;;;5053566;28;20351;-72
2023/05/01 02:41:54;;;;;;;;;;;16.90;99.90;;;;;;5051905;28;20019;-72
2023/05/01 02:44:22;;;;;;;;;;;17.00;99.90;;;;;;5053535;28;19984;-72
2023/05/01 02:46:49;;;;;;;;;;;17.00;99.90;;;;;;5053416;28;19905;-73
2023/05/01 02:49:16;;;;;;;;;;;17.00;99.90;;;;;;5051889;28;19904;-73
2023/05/01 02:51:42;;;;;;;;;;;17.00;99.90;;;;;;5053790;28;19909;-71
2023/05/01 02:54:08;;;;;;;;;;;17.10;99.90;;;;;;5051841;28;20335;-71
2023/05/01 02:56:34;;;;;;;;;;;17.00;99.90;;;;;;5051613;28;19920;-72
2023/05/01 02:59:00;;;;;;;;;;;16.90;99.90;;;;;;5052800;28;19905;-72
2023/05/01 03:01:27;;;;;;;;;;;16.90;99.90;;;;;;5053336;28;20242;-71
2023/05/01 03:03:53;;;;;;;;;;;17.00;99.90;;;;;;5051171;28;19917;-72
2023/05/01 03:06:18;;;;;;;;;;;17.00;99.90;;;;;;5052490;28;20271;-71
2023/05/01 03:08:44;;;;;;;;;;;17.00;99.90;;;;;;5053211;28;19905;-72
2023/05/01 03:11:10;;;;;;;;;;;17.00;99.90;;;;;;5052186;28;20004;-71
2023/05/01 03:13:36;;;;;;;;;;;17.00;99.90;;;;;;5053398;28;19911;-72
2023/05/01 03:16:03;;;;;;;;;;;16.90;99.90;;;;;;5051548;28;20250;-72
2023/05/01 03:18:29;;;;;;;;;;;17.00;99.90;;;;;;5051401;28;19905;-72
2023/05/01 03:20:58;;;;;;;;;;;17.00;99.90;;;;;;5052903;28;19904;-73
2023/05/01 03:23:24;;;;;;;;;;;17.00;99.90;;;;;;5051811;28;19920;-72
2023/05/01 03:25:50;;;;;;;;;;;17.10;99.90;;;;;;5051242;28;19904;-72
2023/05/01 03:28:16;;;;;;;;;;;17.00;99.90;;;;;;5052225;28;19905;-72
2023/05/01 03:30:43;;;;;;;;;;;16.90;99.90;;;;;;5052679;28;19912;-69
2023/05/01 03:33:09;;;;;;;;;;;16.70;99.90;;;;;;5032489;28;20222;-73
2023/05/01 03:35:35;;;;;;;;;;;16.50;99.90;;;;;;5032661;28;19958;-72
2023/05/01 03:38:00;;;;;;;;;;;16.60;99.90;;;;;;5033119;28;19905;-72
2023/05/01 03:40:26;;;;;;;;;;;16.60;99.90;;;;;;5032690;28;19999;-71
2023/05/01 03:42:52;;;;;;;;;;;16.80;99.90;;;;;;5047727;28;19983;-72
2023/05/01 03:45:18;;;;;;;;;;;16.80;99.90;;;;;;5032535;28;19905;-72
2023/05/01 03:47:43;;;;;;;;;;;16.90;99.90;;;;;;5032654;28;20033;-73
2023/05/01 03:50:10;;;;;;;;;;;16.80;99.90;;;;;;5032491;28;19954;-73
2023/05/01 03:52:36;;;;;;;;;;;16.90;99.90;;;;;;5032862;28;19940;-73
2023/05/01 03:55:02;;;;;;;;;;;17.00;99.90;;;;;;5032355;28;19936;-73
2023/05/01 03:57:28;;;;;;;;;;;17.00;99.90;;;;;;5032321;28;20365;-72
2023/05/01 03:59:53;;;;;;;;;;;17.00;99.90;;;;;;5032429;28;19905;-72
2023/05/01 04:02:19;;;;;;;;;;;17.00;99.90;;;;;;5043958;28;19919;-72
2023/05/01 04:04:45;;;;;;;;;;;17.00;99.90;;;;;;5052223;28;19967;-72
2023/05/01 04:07:12;;;;;;;;;;;16.90;99.90;;;;;;5052548;28;20296;-72
2023/05/01 04:09:38;;;;;;;;;;;17.00;99.90;;;;;;5050787;28;19950;-72
2023/05/01 04:12:05;;;;;;;;;;;17.00;99.90;;;;;;5052036;28;19905;-72
2023/05/01 04:14:31;;;;;;;;;;;17.00;99.90;;;;;;5052737;28;20398;-73
2023/05/01 04:16:57;;;;;;;;;;;17.00;99.90;;;;;;5050803;28;19905;-73
2023/05/01 04:19:23;;;;;;;;;;;17.00;99.90;;;;;;5052118;28;19915;-73
2023/05/01 04:21:48;;;;;;;;;;;16.90;99.90;;;;;;5051891;28;19913;-74
2023/05/01 04:24:15;;;;;;;;;;;16.90;99.90;;;;;;5051741;28;19905;-73
2023/05/01 04:26:41;;;;;;;;;;;16.90;99.90;;;;;;5051875;28;19912;-74
2023/05/01 04:29:08;;;;;;;;;;;16.90;99.90;;;;;;5050451;28;19960;-75
2023/05/01 04:31:34;;;;;;;;;;;16.90;99.90;;;;;;5051643;28;19980;-72
2023/05/01 04:34:00;;;;;;;;;;;16.90;99.90;;;;;;5052013;28;19996;-75
2023/05/01 04:36:31;;;;;;;;;;;16.90;99.90;;;;;;5051290;28;20337;-74
2023/05/01 04:38:57;;;;;;;;;;;16.90;99.90;;;;;;5050654;28;19959;-73
2023/05/01 04:41:23;;;;;;;;;;;17.00;99.90;;;;;;5049814;28;19921;-74
2023/05/01 04:43:49;;;;;;;;;;;17.00;99.90;;;;;;5051408;28;20017;-75
2023/05/01 04:46:30;;;;;;;;;;;17.00;99.90;;;;;;5051282;28;19904;-77
2023/05/01 04:48:56;;;;;;;;;;;17.00;99.90;;;;;;5051330;28;19905;-70
2023/05/01 04:51:22;;;;;;;;;;;17.00;99.90;;;;;;5051090;28;20224;-75
2023/05/01 04:53:48;;;;;;;;;;;17.00;99.90;;;;;;5049620;28;19963;-74
2023/05/01 04:56:13;;;;;;;;;;;17.00;99.90;;;;;;5050631;28;19917;-75
2023/05/01 04:58:39;;;;;;;;;;;17.00;99.90;;;;;;5050848;28;19905;-74
2023/05/01 05:01:05;;;;;;;;;;;17.10;99.90;;;;;;5050890;28;19928;-75
2023/05/01 05:03:31;;;;;;;;;;;17.10;99.90;;;;;;5051165;28;20367;-73
2023/05/01 05:05:57;;;;;;;;;;;17.10;99.90;;;;;;5049419;28;19970;-72
2023/05/01 05:08:23;;;;;;;;;;;17.10;99.90;;;;;;5051161;28;20007;-74
2023/05/01 05:10:50;;;;;;;;;;;17.10;99.90;;;;;;5050703;28;20259;-73
2023/05/01 05:13:16;;;;;;;;;;;17.10;99.90;;;;;;5050435;28;19916;-72
2023/05/01 05:15:42;;;;;;;;;;;17.20;99.90;;;;;;5050872;28;19904;-71
2023/05/01 05:18:07;;;;;;;;;;;17.20;99.90;;;;;;5049030;28;19928;-70
2023/05/01 05:20:37;;;;;;;;;;;17.20;99.90;;;;;;5049178;28;19960;-73
2023/05/01 05:23:02;;;;;;;;;;;17.20;99.90;;;;;;5049659;28;20355;-73
2023/05/01 05:25:28;;;;;;;;;;;17.20;99.90;;;;;;5050523;28;19988;-73
2023/05/01 05:27:54;;;;;;;;;;;17.20;99.90;;;;;;5050158;28;19915;-73
2023/05/01 05:30:20;;;;;;;;;;;17.20;99.90;;;;;;5050156;28;19911;-73
2023/05/01 05:32:46;;;;;;;;;;;17.10;99.90;;;;;;5050301;28;19904;-73
2023/05/01 05:35:12;;;;;;;;;;;17.20;99.90;;;;;;5048530;28;19928;-74
2023/05/01 05:37:38;;;;;;;;;;;17.20;99.90;;;;;;5050439;28;20321;-73
2023/05/01 05:40:04;;;;;;;;;;;17.20;99.90;;;;;;5050689;28;19944;-73
2023/05/01 05:42:30;;;;;;;;;;;17.20;99.90;;;;;;5050433;28;19913;-73
2023/05/01 05:44:56;;;;;;;;;;;17.30;99.90;;;;;;5051007;28;19905;-73
2023/05/01 05:47:22;;;;;;;;;;;17.20;99.90;;;;;;5050609;28;20010;-72
2023/05/01 05:49:47;;;;;;;;;;;17.20;99.90;;;;;;5050378;28;19944;-73
2023/05/01 05:52:13;;;;;;;;;;;17.10;99.90;;;;;;5054883;28;20013;-72
2023/05/01 05:54:39;;;;;;;;;;;17.20;99.90;;;;;;5054319;28;19917;-77
2023/05/01 05:57:05;;;;;;;;;;;17.20;99.90;;;;;;5053277;28;19927;-76
2023/05/01 05:59:31;;;;;;;;;;;17.30;99.90;;;;;;5054499;28;19905;-76
2023/05/01 06:01:57;;;;;;;;;;;17.30;99.90;;;;;;5052749;28;20332;-75
2023/05/01 06:04:23;;;;;;;;;;;17.30;99.90;;;;;;5054693;28;19924;-75
2023/05/01 06:06:49;;;;;;;;;;;17.40;99.90;;;;;;5054444;28;19958;-76
2023/05/01 06:09:16;;;;;;;;;;;17.50;99.90;;;;;;5054532;28;19923;-78
2023/05/01 06:11:41;;;;;;;;;;;17.50;99.90;;;;;;5054108;28;20312;-80
2023/05/01 06:14:08;;;;;;;;;;;17.40;99.90;;;;;;5052871;28;19904;-78
2023/05/01 06:16:35;;;;;;;;;;;17.40;99.90;;;;;;5054425;28;20353;-78
2023/05/01 06:19:01;;;;;;;;;;;17.40;99.90;;;;;;5055208;28;19904;-76
2023/05/01 06:21:30;;;;;;;;;;;17.40;99.90;;;;;;5053484;28;19920;-76
2023/05/01 06:23:56;;;;;;;;;;;17.50;99.90;;;;;;5053524;28;19904;-77
2023/05/01 06:26:22;;;;;;;;;;;17.50;99.90;;;;;;5053519;28;19927;-77
2023/05/01 06:28:48;;;;;;;;;;;17.50;99.90;;;;;;5053227;28;19904;-81
2023/05/01 06:31:17;;;;;;;;;;;17.60;99.90;;;;;;5054769;28;19905;-80
2023/05/01 06:33:43;;;;;;;;;;;17.60;99.90;;;;;;5054168;28;19956;-83
2023/05/01 06:36:08;;;;;;;;;;;17.70;99.90;;;;;;5055152;28;19908;-80
2023/05/01 06:38:36;;;;;;;;;;;17.60;99.90;;;;;;5054593;28;20328;-79
2023/05/01 06:41:03;;;;;;;;;;;17.60;99.90;;;;;;5053036;28;20345;-85
2023/05/01 06:43:30;;;;;;;;;;;17.70;99.90;;;;;;5052589;28;19916;-79
2023/05/01 06:45:56;;;;;;;;;;;17.70;99.90;;;;;;5054659;28;19912;-79
2023/05/01 06:48:22;;;;;;;;;;;17.60;99.90;;;;;;5086729;28;19997;-79
2023/05/01 06:50:48;;;;;;;;;;;17.50;99.90;;;;;;5053143;28;19978;-80
2023/05/01 06:53:14;;;;;;;;;;;17.40;99.90;;;;;;5054486;28;19931;-80
2023/05/01 06:55:39;;;;;;;;;;;17.50;99.90;;;;;;5054259;28;20353;-80
2023/05/01 06:58:05;;;;;;;;;;;17.50;99.90;;;;;;5054305;28;19904;-80
2023/05/01 07:00:32;;;;;;;;;;;17.40;99.90;;;;;;5054226;28;20422;-81
2023/05/01 07:02:58;;;;;;;;;;;17.50;99.90;;;;;;5053295;28;19912;-80
2023/05/01 07:05:24;;;;;;;;;;;17.50;99.90;;;;;;5054300;28;20093;-81
2023/05/01 07:07:50;;;;;;;;;;;17.40;99.90;;;;;;5054051;28;19913;-81
2023/05/01 07:10:16;;;;;;;;;;;17.40;99.90;;;;;;5054181;28;20014;-83
2023/05/01 07:12:41;;;;;;;;;;;17.50;99.90;;;;;;5053987;28;19905;-81
2023/05/01 07:15:07;;;;;;;;;;;17.60;99.90;;;;;;5053912;28;19905;-83
2023/05/01 07:17:33;;;;;;;;;;;17.60;99.90;;;;;;5053971;28;20004;-83
2023/05/01 07:20:03;;;;;;;;;;;17.70;99.90;;;;;;5053976;28;19905;-80
2023/05/01 07:22:30;;;;;;;;;;;17.80;99.90;;;;;;5054402;28;19980;-83
2023/05/01 07:24:56;;;;;;;;;;;17.80;99.90;;;;;;5054422;28;19931;-84
2023/05/01 07:27:22;;;;;;;;;;;17.70;99.90;;;;;;5053696;28;20314;-85
2023/05/01 07:29:49;;;;;;;;;;;17.90;99.90;;;;;;5052534;28;20014;-86
2023/05/01 07:32:16;;;;;;;;;;;18.10;99.90;;;;;;5054070;28;20004;-85
2023/05/01 07:34:45;;;;;;;;;;;18.30;99.90;;;;;;5054069;28;19912;-85
2023/05/01 07:37:11;;;;;;;;;;;18.40;99.90;;;;;;5052566;28;19972;-85
2023/05/01 07:39:36;;;;;;;;;;;18.80;99.90;;;;;;5053826;28;19971;-84
2023/05/01 07:42:02;;;;;;;;;;;18.90;99.90;;;;;;5053462;28;19920;-84
2023/05/01 07:44:28;;;;;;;;;;;19.20;99.90;;;;;;5053448;28;19904;-84
2023/05/01 07:46:54;;;;;;;;;;;19.40;99.90;;;;;;5053672;28;19988;-84
2023/05/01 07:49:29;;;;;;;;;;;19.70;99.90;;;;;;5053440;28;19911;-85
2023/05/01 07:51:54;;;;;;;;;;;20.20;99.90;;;;;;5051484;28;19905;-82
2023/05/01 07:54:21;;;;;;;;;;;20.70;99.90;;;;;;5052808;28;19931;-84
2023/05/01 07:56:47;;;;;;;;;;;21.50;99.90;;;;;;5052576;28;20005;-85
2023/05/01 07:59:14;;;;;;;;;;;21.80;99.90;;;;;;5053327;28;19912;-83
2023/05/01 08:01:46;;;;;;;;;;;22.30;99.90;;;;;;5053337;28;19915;-84
2023/05/01 08:04:13;;;;;;;;;;;22.30;99.90;;;;;;5053791;28;20222;-83
2023/05/01 08:06:39;;;;;;;;;;;22.00;99.90;;;;;;5051388;28;20405;-80
2023/05/01 08:09:08;;;;;;;;;;;21.80;99.90;;;;;;5063567;22;20058;-80
2023/05/01 08:11:34;;;;;;;;;;;21.60;99.90;;;;;;5073314;28;19958;-83
2023/05/01 08:14:00;;;;;;;;;;;22.20;99.90;;;;;;5071508;28;19912;-83
2023/05/01 08:16:26;;;;;;;;;;;22.80;99.90;;;;;;5072942;28;19985;-84
2023/05/01 08:18:58;;;;;;;;;;;22.80;99.90;;;;;;5073286;28;19974;-82
2023/05/01 08:21:24;;;;;;;;;;;22.80;99.90;;;;;;5073407;28;20422;-81
2023/05/01 08:23:50;;;;;;;;;;;23.00;99.90;;;;;;5073119;28;19924;-81
2023/05/01 08:26:17;;;;;;;;;;;23.40;99.90;;;;;;5071438;28;19904;-83
2023/05/01 08:28:43;;;;;;;;;;;23.90;99.90;;;;;;5073395;28;20320;-84
2023/05/01 08:31:09;;;;;;;;;;;23.50;99.90;;;;;;5073450;28;19909;-85
2023/05/01 08:33:35;;;;;;;;;;;23.80;99.90;;;;;;5064041;22;20034;-84
2023/05/01 08:36:00;;;;;;;;;;;23.70;99.90;;;;;;5053119;28;19905;-82
2023/05/01 08:38:30;;;;;;;;;;;23.90;99.90;;;;;;5053796;28;20261;-81
2023/05/01 08:40:57;;;;;;;;;;;23.50;99.90;;;;;;5053079;28;19909;-78
2023/05/01 08:43:24;;;;;;;;;;;23.70;99.90;;;;;;5052285;28;19998;-82
2023/05/01 08:45:50;;;;;;;;;;;24.10;99.90;;;;;;5035358;28;20248;-76
2023/05/01 08:48:17;;;;;;;;;;;24.30;99.90;;;;;;5052198;28;19913;-77
2023/05/01 08:50:45;;;;;;;;;;;24.30;99.90;;;;;;5033934;28;20341;-82
2023/05/01 08:53:11;;;;;;;;;;;24.70;99.90;;;;;;5051857;28;19905;-79
2023/05/01 08:55:38;;;;;;;;;;;25.00;99.90;;;;;;5052083;28;19932;-84
2023/05/01 08:58:05;;;;;;;;;;;24.20;99.90;;;;;;5051853;28;19905;-79
2023/05/01 09:00:33;;;;;;;;;;;23.70;99.90;;;;;;5033619;28;19988;-81
2023/05/01 09:03:00;;;;;;;;;;;23.80;99.90;;;;;;5048972;28;19913;-76
2023/05/01 09:05:26;;;;;;;;;;;24.00;99.90;;;;;;5052009;28;20299;-82
2023/05/01 09:07:52;;;;;;;;;;;24.10;99.90;;;;;;5053836;28;20324;-83
2023/05/01 09:10:21;;;;;;;;;;;23.90;99.90;;;;;;5050755;28;19905;-84
2023/05/01 09:12:50;;;;;;;;;;;23.20;99.90;;;;;;5050047;28;19970;-78
2023/05/01 09:15:17;;;;;;;;;;;23.10;99.90;;;;;;5051865;28;20336;-85
2023/05/01 09:17:43;;;;;;;;;;;23.10;99.90;;;;;;5051420;28;19912;-81
2023/05/01 09:20:09;;;;;;;;;;;22.90;99.90;;;;;;5051279;28;20268;-82
2023/05/01 09:22:35;;;;;;;;;;;23.00;99.90;;;;;;5051242;28;19912;-78
2023/05/01 09:25:05;;;;;;;;;;;23.10;99.90;;;;;;5049425;28;20195;-79
2023/05/01 09:27:36;;;;;;;;;;;23.20;99.90;;;;;;5051264;28;19904;-80
2023/05/01 09:30:03;;;;;;;;;;;23.00;99.90;;;;;;5049495;28;20369;-80
2023/05/01 09:32:28;;;;;;;;;;;22.70;99.90;;;;;;5051121;28;19943;-76
2023/05/01 09:35:16;;;;;;;;;;;22.10;99.90;;;;;;5051546;28;20325;-75
2023/05/01 09:37:48;;;;;;;;;;;21.90;99.90;;;;;;5049801;28;19905;-74
2023/05/01 09:40:14;;;;;;;;;;;22.00;99.90;;;;;;5051919;28;19911;-78
2023/05/01 09:42:53;;;;;;;;;;;22.40;99.90;;;;;;5049845;28;19913;-88
2023/05/01 09:45:19;;;;;;;;;;;22.80;99.90;;;;;;5051730;28;19984;-78
2023/05/01 09:47:45;;;;;;;;;;;22.80;99.90;;;;;;5050421;28;19904;-76
2023/05/01 09:50:27;;;;;;;;;;;22.80;99.90;;;;;;5050917;28;19952;-74
2023/05/01 09:52:53;;;;;;;;;;;22.60;99.90;;;;;;5052184;28;19926;-83
2023/05/01 09:55:19;;;;;;;;;;;22.50;99.90;;;;;;5047150;28;20438;-74
2023/05/01 09:57:45;;;;;;;;;;;22.20;99.90;;;;;;5050167;28;19905;-86
2023/05/01 10:00:12;;;;;;;;;;;22.20;99.90;;;;;;5050831;28;19928;-87
2023/05/01 10:02:39;;;;;;;;;;;22.30;99.90;;;;;;5050042;28;19916;-78
2023/05/01 10:05:06;;;;;;;;;;;22.30;99.90;;;;;;5049541;28;20049;-77
2023/05/01 10:07:33;;;;;;;;;;;22.50;99.90;;;;;;5029184;28;19905;-78
2023/05/01 10:10:14;;;;;;;;;;;22.20;99.90;;;;;;5031675;28;19912;-78
2023/05/01 10:12:40;;;;;;;;;;;22.60;99.90;;;;;;5045210;28;20047;-78
2023/05/01 10:15:07;;;;;;;;;;;22.90;99.90;;;;;;5050111;28;20347;-73
2023/05/01 10:17:35;;;;;;;;;;;22.90;99.90;;;;;;5029590;28;19905;-78
2023/05/01 10:20:05;;;;;;;;;;;22.80;99.90;;;;;;5031565;28;19905;-76
2023/05/01 10:22:31;;;;;;;;;;;23.20;99.90;;;;;;5032739;28;20004;-77
2023/05/01 10:24:58;;;;;;;;;;;23.00;99.90;;;;;;5033002;28;19989;-77
2023/05/01 10:27:24;;;;;;;;;;;23.20;99.90;;;;;;5050692;28;19951;-81
2023/05/01 10:29:55;;;;;;;;;;;23.80;99.90;;;;;;5050435;28;19904;-83
2023/05/01 10:32:21;;;;;;;;;;;24.30;99.90;;;;;;5050476;28;20402;-84
2023/05/01 10:34:56;;;;;;;;;;;24.40;99.90;;;;;;5050280;28;19975;-82
2023/05/01 10:37:28;;;;;;;;;;;24.10;99.90;;;;;;5051903;28;19904;-83
2023/05/01 10:39:54;;;;;;;;;;;23.90;99.90;;;;;;5054779;28;19961;-82
2023/05/01 10:42:20;;;;;;;;;;;23.70;99.90;;;;;;5053881;28;19920;-81
2023/05/01 10:45:15;;;;;;;;;;;23.20;99.90;;;;;;5054437;28;19913;-82
2023/05/01 10:47:41;;;;;;;;;;;23.40;99.90;;;;;;5052561;28;20296;-81
2023/05/01 10:50:08;;;;;;;;;;;23.30;99.90;;;;;;5054028;28;19959;-81
2023/05/01 10:52:53;;;;;;;;;;;23.20;99.90;;;;;;5054229;28;20004;-82
2023/05/01 10:55:31;;;;;;;;;;;23.10;99.90;;;;;;5053859;28;20464;-80
2023/05/01 10:57:57;;;;;;;;;;;22.80;99.90;;;;;;5053943;28;20008;-82
2023/05/01 11:00:23;;;;;;;;;;;23.00;99.90;;;;;;5053796;28;20022;-80
2023/05/01 11:02:49;;;;;;;;;;;23.20;99.90;;;;;;5054114;28;19923;-79
2023/05/01 11:05:15;;;;;;;;;;;23.40;99.90;;;;;;5053736;28;19958;-80
2023/05/01 11:07:40;;;;;;;;;;;23.70;99.90;;;;;;5053547;28;19912;-83
2023/05/01 11:10:24;;;;;;;;;;;24.00;99.90;;;;;;5053681;28;19912;-81
2023/05/01 11:12:56;;;;;;;;;;;23.50;99.90;;;;;;5053746;28;19905;-81
2023/05/01 11:15:26;;;;;;;;;;;23.50;99.90;;;;;;5053648;28;19905;-85
2023/05/01 11:17:56;;;;;;;;;;;23.80;99.90;;;;;;5052443;28;19905;-85
2023/05/01 11:20:24;;;;;;;;;;;23.90;99.90;;;;;;5052211;28;19992;-81
2023/05/01 11:22:51;;;;;;;;;;;23.80;99.90;;;;;;5055607;28;19979;-73
2023/05/01 11:25:19;;;;;;;;;;;23.60;99.90;;;;;;5053392;28;19911;-72
2023/05/01 11:27:49;;;;;;;;;;;23.90;99.90;;;;;;5053492;28;19905;-74
2023/05/01 11:30:20;;;;;;;;;;;24.10;99.90;;;;;;5065307;22;19920;-69
2023/05/01 11:32:47;;;;;;;;;;;24.10;99.90;;;;;;5073350;28;19982;-73
2023/05/01 11:35:19;;;;;;;;;;;24.10;99.90;;;;;;5071825;28;19945;-74
2023/05/01 11:37:54;;;;;;;;;;;24.20;99.90;;;;;;5072315;28;20414;-76
2023/05/01 11:40:20;;;;;;;;;;;24.00;99.90;;;;;;5072872;28;19904;-74
2023/05/01 11:42:46;;;;;;;;;;;23.90;99.90;;;;;;5073173;28;19920;-75
2023/05/01 11:45:13;;;;;;;;;;;23.30;99.90;;;;;;5071493;28;19905;-72
2023/05/01 11:47:38;;;;;;;;;;;23.40;99.90;;;;;;5072764;28;19974;-70
2023/05/01 11:50:05;;;;;;;;;;;23.50;99.90;;;;;;5070882;28;20325;-71
2023/05/01 11:52:40;;;;;;;;;;;23.40;99.90;;;;;;5072915;28;19912;-72
2023/05/01 11:55:06;;;;;;;;;;;23.20;99.90;;;;;;5072759;28;19928;-73
2023/05/01 11:57:43;;;;;;;;;;;23.00;99.90;;;;;;5072554;28;19911;-75
2023/05/01 12:00:09;;;;;;;;;;;23.20;99.90;;;;;;5071134;28;19954;-74
2023/05/01 12:02:35;;;;;;;;;;;23.50;99.90;;;;;;5072536;28;19916;-73
2023/05/01 12:05:14;;;;;;;;;;;23.20;99.90;;;;;;5072587;28;19904;-73
2023/05/01 12:07:40;;;;;;;;;;;23.20;99.90;;;;;;5072543;28;19922;-75
2023/05/01 12:10:06;;;;;;;;;;;23.20;99.90;;;;;;5072619;28;19970;-70
2023/05/01 12:12:32;;;;;;;;;;;23.50;99.90;;;;;;5072496;28;20017;-71
2023/05/01 12:14:58;;;;;;;;;;;23.20;99.90;;;;;;5072273;28;19987;-72
2023/05/01 12:17:24;;;;;;;;;;;23.40;99.90;;;;;;5071931;28;20030;-71
2023/05/01 12:19:50;;;;;;;;;;;23.60;99.90;;;;;;5072196;28;19904;-70
2023/05/01 12:22:16;;;;;;;;;;;23.90;99.90;;;;;;5070606;28;20391;-72
2023/05/01 12:24:51;;;;;;;;;;;24.20;99.90;;;;;;5072310;28;19995;-70
2023/05/01 12:27:18;;;;;;;;;;;24.30;99.90;;;;;;5071976;28;19908;-75
2023/05/01 12:29:46;;;;;;;;;;;23.70;99.90;;;;;;5071691;28;19911;-73
2023/05/01 12:32:12;;;;;;;;;;;23.40;99.90;;;;;;5072135;28;19926;-74
2023/05/01 12:34:38;;;;;;;;;;;23.00;99.90;;;;;;5071901;28;19950;-70
2023/05/01 12:37:04;;;;;;;;;;;22.80;99.90;;;;;;5072354;28;19958;-69
2023/05/01 12:39:37;;;;;;;;;;;22.90;99.90;;;;;;5071903;28;19905;-72
2023/05/01 12:42:10;;;;;;;;;;;23.20;99.90;;;;;;5070288;28;20003;-70
2023/05/01 12:44:36;;;;;;;;;;;23.00;99.90;;;;;;5071694;28;19904;-69
2023/05/01 12:47:03;;;;;;;;;;;22.70;99.90;;;;;;5071007;28;19920;-72
2023/05/01 12:49:30;;;;;;;;;;;22.80;99.90;;;;;;5072019;28;19904;-70
2023/05/01 12:51:57;;;;;;;;;;;22.80;99.90;;;;;;5071742;28;20042;-71
2023/05/01 12:54:25;;;;;;;;;;;22.40;99.90;;;;;;5071879;28;19904;-71
2023/05/01 12:56:54;;;;;;;;;;;23.10;99.90;;;;;;5071923;28;19905;-71
2023/05/01 12:59:23;;;;;;;;;;;23.50;99.90;;;;;;5071737;28;19915;-71
2023/05/01 13:02:03;;;;;;;;;;;23.60;99.90;;;;;;5069721;28;19918;-71
2023/05/01 13:04:29;;;;;;;;;;;23.30;99.90;;;;;;5070188;28;19973;-71
2023/05/01 13:06:56;;;;;;;;;;;23.10;99.90;;;;;;5070119;28;19999;-71
2023/05/01 13:09:26;;;;;;;;;;;22.90;99.90;;;;;;5071865;28;19912;-72
2023/05/01 13:11:56;;;;;;;;;;;23.10;99.90;;;;;;5071342;28;19911;-71
2023/05/01 13:14:21;;;;;;;;;;;23.20;99.90;;;;;;5071315;28;20458;-71
2023/05/01 13:16:48;;;;;;;;;;;23.30;99.90;;;;;;5071826;28;19955;-71
2023/05/01 13:19:24;;;;;;;;;;;23.20;99.90;;;;;;5071535;28;19996;-71
2023/05/01 13:21:51;;;;;;;;;;;23.30;99.90;;;;;;5071969;28;20344;-71
2023/05/01 13:24:16;;;;;;;;;;;23.40;99.90;;;;;;5071429;28;19904;-71
2023/05/01 13:26:43;;;;;;;;;;;23.80;99.90;;;;;;5071518;28;20225;-71
2023/05/01 13:29:13;;;;;;;;;;;24.00;99.90;;;;;;5071203;28;19910;-71
2023/05/01 13:31:42;;;;;;;;;;;23.90;99.90;;;;;;5071164;28;19917;-70
2023/05/01 13:34:07;;;;;;;;;;;23.50;99.90;;;;;;5071487;28;19975;-72
2023/05/01 13:36:34;;;;;;;;;;;23.40;99.90;;;;;;5071174;28;19934;-71
2023/05/01 13:38:59;;;;;;;;;;;23.60;99.90;;;;;;5071241;28;20020;-71
2023/05/01 13:41:26;;;;;;;;;;;23.30;99.90;;;;;;5071359;28;20331;-71
2023/05/01 13:43:53;;;;;;;;;;;23.10;99.90;;;;;;5070590;28;20337;-74
2023/05/01 13:46:20;;;;;;;;;;;22.80;99.90;;;;;;5070593;28;19911;-74
2023/05/01 13:48:46;;;;;;;;;;;23.00;99.90;;;;;;5070358;28;19904;-71
2023/05/01 13:51:12;;;;;;;;;;;23.40;99.90;;;;;;5070507;28;19987;-72
2023/05/01 13:53:39;;;;;;;;;;;23.60;99.90;;;;;;5070849;28;20352;-75
2023/05/01 13:56:07;;;;;;;;;;;23.40;99.90;;;;;;5069058;28;20010;-71
2023/05/01 13:58:33;;;;;;;;;;;23.30;99.90;;;;;;5070189;28;19927;-76
2023/05/01 14:00:59;;;;;;;;;;;23.20;99.90;;;;;;5070777;28;19905;-72
2023/05/01 14:03:25;;;;;;;;;;;22.90;99.90;;;;;;5071194;28;20259;-72
2023/05/01 14:05:51;;;;;;;;;;;22.90;99.90;;;;;;5070976;28;19905;-70
2023/05/01 14:08:24;;;;;;;;;;;22.90;99.90;;;;;;5071153;28;19904;-71
2023/05/01 14:10:50;;;;;;;;;;;23.40;99.90;;;;;;5071320;28;19999;-70
2023/05/01 14:13:17;;;;;;;;;;;23.30;99.90;;;;;;5073870;28;20000;-70
2023/05/01 14:15:44;;;;;;;;;;;23.30;99.90;;;;;;5074201;28;19904;-74
2023/05/01 14:18:14;;;;;;;;;;;23.50;99.90;;;;;;5074359;28;19908;-70